Christmas Island, Christmas Island

12:40 AM CXT on December 04, 2016 (GMT +0700)
Christmas Island | | Change Station

Elev 860 ft 10.45 °S, 105.69 °E | Updated 40 minutes ago

Overcast
Overcast
75 °F
Feels Like 75 °F
N
6
Wind Variable Wind from SE

Today
High -- | Low -- °F
--% Chance of Precip.
Yesterday
High -- | Low -- °F
Precip. -- in
Pressure 29.89 in
Visibility 6.2 miles
Clouds Scattered Clouds 1400 ft
Scattered Clouds 2200 ft
Overcast 9000 ft
Dew Point 72 °F
Humidity 89%
Rainfall 0.00 in
Snow Depth Not available.
5:26 AM 6:08 PM
Waxing Crescent, 16% visible
METAR YPXM 031700Z AUTO 13005KT 9999 // SCT014 SCT022 OVC090 24/22 Q1012
Pressure 29.89 in
Visibility 6.2 miles
Clouds Scattered Clouds 1400 ft
Scattered Clouds 2200 ft
Overcast 9000 ft
Dew Point 72 °F
Humidity 89%
Rainfall 0.00 in
Snow Depth Not available.
5:26 AM 6:08 PM
Waxing Crescent, 16% visible
METAR YPXM 031700Z AUTO 13005KT 9999 // SCT014 SCT022 OVC090 24/22 Q1012

10-Day Weather Forecast

No radar image for this location.
×

Almanac

Astronomy

Dec. 04, 2016 Rise Set
Actual Time
Civil Twilight
Nautical Twilight
Astronomical Twilight
Moon
Length of Visible Light
Length of Day
Tomorrow will be .
, % of the Moon is Illuminated

Today's Extremes

Country Highs Country Lows

Community

WunderPhotos

Upload Photos

1,955,452 photos uploaded!

WunderBlog® & News

Nearby

Air Quality

  Air Quality AQ Index Pollutant
Not available.

Snow Depth

Station Depth Elevation

Earthquake Activity

City Distance Mag. Time & Date
Minimum magnitude displayed is 2.5.

Coastal Water Temperatures

Place Temperature

Stations

Nearby Weather Stations

Station Location Temp. Windchill Dew Point Humidity Wind Precip. Elev Updated Type